UABA weather

Burana Airport
Burana village, Chuy Region, Kyrgyzstan

Public forecast

Using degrees Celsius for public forecast. Weather courtesy of forecast.io.

Closest aviation weather report (METAR) to Burana Airport

Closest report is Manas International Airport, 41.9 nm (77.6 km) WNW. Retrieved 2019/10/22 14:30 UTC (22 minutes ago):

UCFM 221430Z 07002MPS CAVOK 07/M02 Q1024 R08/0///95 NOSIG

Closest aviation forecast (TAF) to Burana Airport

Closest forecast is Manas International Airport, 41.9 nm (77.6 km) WNW. Retrieved 2019/10/22 12:00 UTC (3 hours ago):

TAF UCFM 221042Z 2212/2312 11003G08MPS 4000 BR NSC TEMPO 2215/2221 1500 BR FU TEMPO 2221/2303 1500 BR FU BECMG 2305/2306 30003G08MPS 9999 NSW